sensor_id;sensor_type;location;lat;lon;timestamp;pressure;altitude;pressure_sealevel;temperature;humidity
29909;BME280;36247;51.952;6.146;2023-07-31T00:00:38;100915.72;;;14.97;100.00
29909;BME280;36247;51.952;6.146;2023-07-31T00:03:03;100912.16;;;14.97;100.00
29909;BME280;36247;51.952;6.146;2023-07-31T00:05:30;100912.16;;;14.97;100.00
29909;BME280;36247;51.952;6.146;2023-07-31T00:07:55;100906.81;;;14.98;100.00
29909;BME280;36247;51.952;6.146;2023-07-31T00:10:21;100907.69;;;15.04;100.00
29909;BME280;36247;51.952;6.146;2023-07-31T00:12:47;100902.34;;;15.10;100.00
29909;BME280;36247;51.952;6.146;2023-07-31T00:15:14;100907.63;;;15.22;100.00
29909;BME280;36247;51.952;6.146;2023-07-31T00:17:43;100890.78;;;15.09;100.00
29909;BME280;36247;51.952;6.146;2023-07-31T00:20:09;100900.50;;;15.18;100.00
29909;BME280;36247;51.952;6.146;2023-07-31T00:22:41;100884.53;;;15.09;100.00
29909;BME280;36247;51.952;6.146;2023-07-31T00:25:08;100884.50;;;15.20;100.00
29909;BME280;36247;51.952;6.146;2023-07-31T00:27:34;100880.91;;;15.25;100.00
29909;BME280;36247;51.952;6.146;2023-07-31T00:30:00;100880.09;;;15.14;100.00
29909;BME280;36247;51.952;6.146;2023-07-31T00:32:28;100872.88;;;15.28;100.00
29909;BME280;36247;51.952;6.146;2023-07-31T00:34:54;100869.41;;;15.19;100.00
29909;BME280;36247;51.952;6.146;2023-07-31T00:37:19;100868.47;;;15.18;100.00
29909;BME280;36247;51.952;6.146;2023-07-31T00:39:45;100864.84;;;15.34;100.00
29909;BME280;36247;51.952;6.146;2023-07-31T00:42:13;100863.09;;;15.30;100.00
29909;BME280;36247;51.952;6.146;2023-07-31T00:44:38;100863.97;;;15.32;100.00
29909;BME280;36247;51.952;6.146;2023-07-31T00:47:04;100864.88;;;15.30;100.00
29909;BME280;36247;51.952;6.146;2023-07-31T00:49:30;100849.69;;;15.44;100.00
29909;BME280;36247;51.952;6.146;2023-07-31T00:51:55;100853.31;;;15.31;100.00
29909;BME280;36247;51.952;6.146;2023-07-31T00:54:25;100843.47;;;15.44;100.00
29909;BME280;36247;51.952;6.146;2023-07-31T00:56:53;100853.25;;;15.40;100.00
29909;BME280;36247;51.952;6.146;2023-07-31T00:59:21;100844.34;;;15.44;100.00
29909;BME280;36247;51.952;6.146;2023-07-31T01:01:46;100839.84;;;15.48;100.00
29909;BME280;36247;51.952;6.146;2023-07-31T01:04:13;100836.19;;;15.61;100.00
29909;BME280;36247;51.952;6.146;2023-07-31T01:11:54;100838.78;;;15.80;100.00
29909;BME280;36247;51.952;6.146;2023-07-31T01:14:21;100833.38;;;15.88;100.00
29909;BME280;36247;51.952;6.146;2023-07-31T01:16:47;100835.91;;;16.01;100.00
29909;BME280;36247;51.952;6.146;2023-07-31T01:19:15;100836.72;;;16.14;100.00
29909;BME280;36247;51.952;6.146;2023-07-31T01:27:34;100828.53;;;16.31;100.00
29909;BME280;36247;51.952;6.146;2023-07-31T01:30:15;100824.09;;;16.32;100.00
29909;BME280;36247;51.952;6.146;2023-07-31T01:32:44;100825.81;;;16.33;100.00
29909;BME280;36247;51.952;6.146;2023-07-31T01:35:13;100821.47;;;16.27;100.00
29909;BME280;36247;51.952;6.146;2023-07-31T01:37:43;100821.44;;;16.30;100.00
29909;BME280;36247;51.952;6.146;2023-07-31T01:40:09;100819.59;;;16.32;100.00
29909;BME280;36247;51.952;6.146;2023-07-31T01:42:36;100809.81;;;16.30;100.00
29909;BME280;36247;51.952;6.146;2023-07-31T01:45:02;100811.59;;;16.31;100.00
29909;BME280;36247;51.952;6.146;2023-07-31T01:47:28;100809.81;;;16.30;100.00
29909;BME280;36247;51.952;6.146;2023-07-31T01:49:53;100813.38;;;16.33;100.00
29909;BME280;36247;51.952;6.146;2023-07-31T01:52:19;100814.28;;;16.31;100.00
29909;BME280;36247;51.952;6.146;2023-07-31T01:54:44;100813.38;;;16.32;100.00
29909;BME280;36247;51.952;6.146;2023-07-31T01:57:13;100800.00;;;16.33;100.00
29909;BME280;36247;51.952;6.146;2023-07-31T01:59:38;100809.75;;;16.36;100.00
29909;BME280;36247;51.952;6.146;2023-07-31T02:02:04;100800.03;;;16.30;100.00
29909;BME280;36247;51.952;6.146;2023-07-31T02:04:30;100784.84;;;16.32;100.00
29909;BME280;36247;51.952;6.146;2023-07-31T02:06:55;100793.75;;;16.31;100.00
29909;BME280;36247;51.952;6.146;2023-07-31T02:09:21;100792.81;;;16.38;100.00
29909;BME280;36247;51.952;6.146;2023-07-31T02:11:47;100789.28;;;16.35;100.00
29909;BME280;36247;51.952;6.146;2023-07-31T02:14:13;100786.66;;;16.30;100.00
29909;BME280;36247;51.952;6.146;2023-07-31T02:16:38;100796.41;;;16.33;100.00
29909;BME280;36247;51.952;6.146;2023-07-31T02:19:08;100783.97;;;16.33;100.00
29909;BME280;36247;51.952;6.146;2023-07-31T02:21:34;100788.34;;;16.37;100.00
29909;BME280;36247;51.952;6.146;2023-07-31T02:24:00;100783.06;;;16.33;100.00
29909;BME280;36247;51.952;6.146;2023-07-31T02:26:26;100771.44;;;16.37;100.00
29909;BME280;36247;51.952;6.146;2023-07-31T02:28:51;100787.53;;;16.31;100.00
29909;BME280;36247;51.952;6.146;2023-07-31T02:31:16;100770.63;;;16.32;100.00
29909;BME280;36247;51.952;6.146;2023-07-31T02:33:43;100774.19;;;16.31;100.00
29909;BME280;36247;51.952;6.146;2023-07-31T02:36:10;100779.63;;;16.23;100.00
29909;BME280;36247;51.952;6.146;2023-07-31T02:38:38;100773.31;;;16.29;100.00
29909;BME280;36247;51.952;6.146;2023-07-31T02:41:08;100768.88;;;16.26;100.00
29909;BME280;36247;51.952;6.146;2023-07-31T02:43:33;100765.31;;;16.29;100.00
29909;BME280;36247;51.952;6.146;2023-07-31T02:45:59;100758.09;;;16.35;100.00
29909;BME280;36247;51.952;6.146;2023-07-31T02:48:26;100767.00;;;16.33;100.00
29909;BME280;36247;51.952;6.146;2023-07-31T02:50:51;100747.44;;;16.31;100.00
29909;BME280;36247;51.952;6.146;2023-07-31T02:53:17;100758.13;;;16.31;100.00
29909;BME280;36247;51.952;6.146;2023-07-31T02:55:44;100762.50;;;16.39;100.00
29909;BME280;36247;51.952;6.146;2023-07-31T02:58:14;100761.63;;;16.36;100.00
29909;BME280;36247;51.952;6.146;2023-07-31T03:00:44;100761.56;;;16.40;100.00
29909;BME280;36247;51.952;6.146;2023-07-31T03:03:13;100756.25;;;16.39;100.00
29909;BME280;36247;51.952;6.146;2023-07-31T03:05:38;100767.91;;;16.35;100.00
29909;BME280;36247;51.952;6.146;2023-07-31T03:08:10;100770.59;;;16.33;100.00
29909;BME280;36247;51.952;6.146;2023-07-31T03:10:38;100770.56;;;16.36;100.00
29909;BME280;36247;51.952;6.146;2023-07-31T03:13:04;100762.50;;;16.39;100.00
29909;BME280;36247;51.952;6.146;2023-07-31T03:15:30;100766.94;;;16.42;100.00
29909;BME280;36247;51.952;6.146;2023-07-31T03:17:55;100771.41;;;16.38;100.00
29909;BME280;36247;51.952;6.146;2023-07-31T03:20:21;100768.66;;;16.46;100.00
29909;BME280;36247;51.952;6.146;2023-07-31T03:22:46;100768.75;;;16.37;100.00
29909;BME280;36247;51.952;6.146;2023-07-31T03:25:13;100765.25;;;16.33;100.00
29909;BME280;36247;51.952;6.146;2023-07-31T03:27:43;100767.91;;;16.33;100.00
29909;BME280;36247;51.952;6.146;2023-07-31T03:30:08;100769.72;;;16.31;100.00
29909;BME280;36247;51.952;6.146;2023-07-31T03:32:34;100767.06;;;16.30;100.00
29909;BME280;36247;51.952;6.146;2023-07-31T03:35:00;100766.19;;;16.29;100.00
29909;BME280;36247;51.952;6.146;2023-07-31T03:37:26;100761.72;;;16.28;100.00
29909;BME280;36247;51.952;6.146;2023-07-31T03:39:52;100759.09;;;16.25;100.00
29909;BME280;36247;51.952;6.146;2023-07-31T03:42:18;100752.88;;;16.23;100.00
29909;BME280;36247;51.952;6.146;2023-07-31T03:44:43;100760.91;;;16.23;100.00
29909;BME280;36247;51.952;6.146;2023-07-31T03:47:13;100750.19;;;16.26;100.00
29909;BME280;36247;51.952;6.146;2023-07-31T03:49:38;100751.06;;;16.25;100.00
29909;BME280;36247;51.952;6.146;2023-07-31T03:52:08;100751.00;;;16.30;100.00
29909;BME280;36247;51.952;6.146;2023-07-31T03:54:34;100743.09;;;16.20;100.00
29909;BME280;36247;51.952;6.146;2023-07-31T03:57:00;100754.63;;;16.27;100.00
29909;BME280;36247;51.952;6.146;2023-07-31T03:59:25;100744.91;;;16.18;100.00
29909;BME280;36247;51.952;6.146;2023-07-31T04:01:51;100745.78;;;16.20;100.00
29909;BME280;36247;51.952;6.146;2023-07-31T04:04:17;100741.38;;;16.15;100.00
29909;BME280;36247;51.952;6.146;2023-07-31T04:06:43;100751.13;;;16.20;100.00
29909;BME280;36247;51.952;6.146;2023-07-31T04:09:09;100753.84;;;16.16;100.00
29909;BME280;36247;51.952;6.146;2023-07-31T04:11:34;100742.25;;;16.17;100.00
29909;BME280;36247;51.952;6.146;2023-07-31T04:14:00;100746.69;;;16.16;100.00
29909;BME280;36247;51.952;6.146;2023-07-31T04:16:26;100739.63;;;16.14;100.00
29909;BME280;36247;51.952;6.146;2023-07-31T04:18:51;100740.47;;;16.16;100.00
29909;BME280;36247;51.952;6.146;2023-07-31T04:21:17;100743.13;;;16.19;100.00
29909;BME280;36247;51.952;6.146;2023-07-31T04:23:43;100733.31;;;16.18;100.00
29909;BME280;36247;51.952;6.146;2023-07-31T04:26:09;100738.69;;;16.16;100.00
29909;BME280;36247;51.952;6.146;2023-07-31T04:28:34;100734.22;;;16.18;100.00
29909;BME280;36247;51.952;6.146;2023-07-31T04:31:00;100735.13;;;16.17;100.00
29909;BME280;36247;51.952;6.146;2023-07-31T04:33:26;100726.16;;;16.21;100.00
29909;BME280;36247;51.952;6.146;2023-07-31T04:35:52;100730.59;;;16.22;100.00
29909;BME280;36247;51.952;6.146;2023-07-31T04:38:21;100739.47;;;16.26;100.00
29909;BME280;36247;51.952;6.146;2023-07-31T04:40:47;100736.00;;;16.18;100.00
29909;BME280;36247;51.952;6.146;2023-07-31T04:43:13;100729.69;;;16.25;100.00
29909;BME280;36247;51.952;6.146;2023-07-31T04:45:47;100727.91;;;16.24;100.00
29909;BME280;36247;51.952;6.146;2023-07-31T04:48:13;100731.47;;;16.25;100.00
29909;BME280;36247;51.952;6.146;2023-07-31T04:50:43;100719.88;;;16.27;100.00
29909;BME280;36247;51.952;6.146;2023-07-31T04:53:09;100719.00;;;16.25;100.00
29909;BME280;36247;51.952;6.146;2023-07-31T04:55:37;100718.06;;;16.28;100.00
29909;BME280;36247;51.952;6.146;2023-07-31T04:58:02;100719.84;;;16.30;100.00
29909;BME280;36247;51.952;6.146;2023-07-31T05:00:28;100710.06;;;16.28;100.00
29909;BME280;36247;51.952;6.146;2023-07-31T05:02:53;100706.41;;;16.36;100.00
29909;BME280;36247;51.952;6.146;2023-07-31T05:05:19;100705.53;;;16.31;100.00
29909;BME280;36247;51.952;6.146;2023-07-31T05:07:44;100704.63;;;16.34;100.00
29909;BME280;36247;51.952;6.146;2023-07-31T05:10:13;100711.75;;;16.36;100.00
29909;BME280;36247;51.952;6.146;2023-07-31T05:12:38;100710.03;;;16.31;100.00
29909;BME280;36247;51.952;6.146;2023-07-31T05:15:09;100707.31;;;16.32;100.00
29909;BME280;36247;51.952;6.146;2023-07-31T05:17:38;100701.06;;;16.35;100.00
29909;BME280;36247;51.952;6.146;2023-07-31T05:20:04;100705.50;;;16.34;100.00
29909;BME280;36247;51.952;6.146;2023-07-31T05:22:30;100693.88;;;16.38;100.00
29909;BME280;36247;51.952;6.146;2023-07-31T05:24:55;100697.41;;;16.40;100.00
29909;BME280;36247;51.952;6.146;2023-07-31T05:27:21;100692.06;;;16.44;100.00
29909;BME280;36247;51.952;6.146;2023-07-31T05:29:47;100684.81;;;16.50;100.00
29909;BME280;36247;51.952;6.146;2023-07-31T05:32:13;100687.50;;;16.49;100.00
29909;BME280;36247;51.952;6.146;2023-07-31T05:34:38;100675.94;;;16.48;100.00
29909;BME280;36247;51.952;6.146;2023-07-31T05:37:13;100675.06;;;16.46;100.00
29909;BME280;36247;51.952;6.146;2023-07-31T05:39:43;100669.69;;;16.48;100.00
29909;BME280;36247;51.952;6.146;2023-07-31T05:42:09;100657.38;;;16.34;100.00
29909;BME280;36247;51.952;6.146;2023-07-31T05:44:34;100665.34;;;16.42;100.00
29909;BME280;36247;51.952;6.146;2023-07-31T05:47:00;100680.69;;;16.26;100.00
29909;BME280;36247;51.952;6.146;2023-07-31T05:49:26;100683.44;;;16.18;100.00
29909;BME280;36247;51.952;6.146;2023-07-31T05:51:51;100683.47;;;16.17;100.00
29909;BME280;36247;51.952;6.146;2023-07-31T05:54:17;100679.06;;;16.11;100.00
29909;BME280;36247;51.952;6.146;2023-07-31T05:56:43;100679.06;;;16.13;100.00
29909;BME280;36247;51.952;6.146;2023-07-31T05:59:11;100666.50;;;16.18;100.00
29909;BME280;36247;51.952;6.146;2023-07-31T06:01:39;100680.88;;;16.06;100.00
29909;BME280;36247;51.952;6.146;2023-07-31T06:04:20;100667.53;;;16.06;100.00
29909;BME280;36247;51.952;6.146;2023-07-31T06:06:46;100672.91;;;16.03;100.00
29909;BME280;36247;51.952;6.146;2023-07-31T06:09:12;100672.97;;;15.98;100.00
29909;BME280;36247;51.952;6.146;2023-07-31T06:11:42;100677.38;;;16.02;100.00
29909;BME280;36247;51.952;6.146;2023-07-31T06:14:08;100662.25;;;16.00;100.00
29909;BME280;36247;51.952;6.146;2023-07-31T06:16:34;100662.19;;;16.06;100.00
29909;BME280;36247;51.952;6.146;2023-07-31T06:19:00;100663.13;;;16.03;100.00
29909;BME280;36247;51.952;6.146;2023-07-31T06:21:26;100664.06;;;15.98;100.00
29909;BME280;36247;51.952;6.146;2023-07-31T06:23:51;100655.91;;;16.10;100.00
29909;BME280;36247;51.952;6.146;2023-07-31T06:26:17;100660.31;;;16.14;100.00
29909;BME280;36247;51.952;6.146;2023-07-31T06:28:43;100655.88;;;16.12;100.00
29909;BME280;36247;51.952;6.146;2023-07-31T06:31:08;100659.53;;;16.04;100.00
29909;BME280;36247;51.952;6.146;2023-07-31T06:33:35;100655.84;;;16.15;100.00
29909;BME280;36247;51.952;6.146;2023-07-31T06:36:00;100656.69;;;16.20;100.00
29909;BME280;36247;51.952;6.146;2023-07-31T06:38:26;100651.47;;;16.09;100.00
29909;BME280;36247;51.952;6.146;2023-07-31T06:40:53;100648.75;;;16.11;100.00
29909;BME280;36247;51.952;6.146;2023-07-31T06:43:18;100643.47;;;16.08;100.00
29909;BME280;36247;51.952;6.146;2023-07-31T06:45:44;100639.81;;;16.15;100.00
29909;BME280;36247;51.952;6.146;2023-07-31T06:48:13;100637.13;;;16.16;100.00
29909;BME280;36247;51.952;6.146;2023-07-31T06:50:38;100635.34;;;16.17;100.00
29909;BME280;36247;51.952;6.146;2023-07-31T06:53:09;100631.75;;;16.19;100.00
29909;BME280;36247;51.952;6.146;2023-07-31T06:55:34;100628.94;;;16.30;100.00
29909;BME280;36247;51.952;6.146;2023-07-31T06:58:00;100632.47;;;16.32;100.00
29909;BME280;36247;51.952;6.146;2023-07-31T07:00:26;100628.09;;;16.25;100.00
29909;BME280;36247;51.952;6.146;2023-07-31T07:02:52;100619.97;;;16.33;100.00
29909;BME280;36247;51.952;6.146;2023-07-31T07:05:17;100624.47;;;16.31;100.00
29909;BME280;36247;51.952;6.146;2023-07-31T07:07:44;100606.50;;;16.42;100.00
29909;BME280;36247;51.952;6.146;2023-07-31T07:10:13;100607.47;;;16.36;100.00
29909;BME280;36247;51.952;6.146;2023-07-31T07:12:38;100610.03;;;16.44;100.00
29909;BME280;36247;51.952;6.146;2023-07-31T07:15:09;100601.06;;;16.48;100.00
29909;BME280;36247;51.952;6.146;2023-07-31T07:17:34;100606.53;;;16.39;100.00
29909;BME280;36247;51.952;6.146;2023-07-31T07:20:00;100601.16;;;16.44;100.00
29909;BME280;36247;51.952;6.146;2023-07-31T07:22:26;100606.41;;;16.50;100.00
29909;BME280;36247;51.952;6.146;2023-07-31T07:24:53;100605.59;;;16.42;100.00
29909;BME280;36247;51.952;6.146;2023-07-31T07:27:18;100599.31;;;16.46;100.00
29909;BME280;36247;51.952;6.146;2023-07-31T07:29:45;100591.19;;;16.53;100.00
29909;BME280;36247;51.952;6.146;2023-07-31T07:32:13;100591.91;;;16.65;100.00
29909;BME280;36247;51.952;6.146;2023-07-31T07:34:42;100588.25;;;16.69;100.00
29909;BME280;36247;51.952;6.146;2023-07-31T07:37:09;100592.66;;;16.74;100.00
29909;BME280;36247;51.952;6.146;2023-07-31T07:39:36;100584.69;;;16.70;100.00
29909;BME280;36247;51.952;6.146;2023-07-31T07:42:01;100585.63;;;16.67;100.00
29909;BME280;36247;51.952;6.146;2023-07-31T07:44:27;100586.38;;;16.77;100.00
29909;BME280;36247;51.952;6.146;2023-07-31T07:46:52;100592.50;;;16.82;100.00
29909;BME280;36247;51.952;6.146;2023-07-31T07:49:18;100588.91;;;16.85;100.00
29909;BME280;36247;51.952;6.146;2023-07-31T07:51:43;100591.00;;;16.66;100.00
29909;BME280;36247;51.952;6.146;2023-07-31T07:54:13;100582.91;;;16.69;100.00
29909;BME280;36247;51.952;6.146;2023-07-31T07:56:44;100583.97;;;16.60;100.00
29909;BME280;36247;51.952;6.146;2023-07-31T07:59:13;100583.91;;;16.65;100.00
29909;BME280;36247;51.952;6.146;2023-07-31T08:01:43;100587.59;;;16.56;100.00
29909;BME280;36247;51.952;6.146;2023-07-31T08:04:09;100584.00;;;16.57;100.00
29909;BME280;36247;51.952;6.146;2023-07-31T08:06:34;100575.88;;;16.65;100.00
29909;BME280;36247;51.952;6.146;2023-07-31T08:09:00;100578.66;;;16.59;100.00
29909;BME280;36247;51.952;6.146;2023-07-31T08:11:31;100574.09;;;16.64;100.00
29909;BME280;36247;51.952;6.146;2023-07-31T08:13:56;100570.44;;;16.69;100.00
29909;BME280;36247;51.952;6.146;2023-07-31T08:16:22;100570.41;;;16.71;100.00
29909;BME280;36247;51.952;6.146;2023-07-31T08:18:47;100573.00;;;16.77;100.00
29909;BME280;36247;51.952;6.146;2023-07-31T08:21:14;100569.50;;;16.70;100.00
29909;BME280;36247;51.952;6.146;2023-07-31T08:23:44;100560.50;;;16.78;100.00
29909;BME280;36247;51.952;6.146;2023-07-31T08:26:16;100565.75;;;16.84;100.00
29909;BME280;36247;51.952;6.146;2023-07-31T08:28:44;100571.25;;;16.74;100.00
29909;BME280;36247;51.952;6.146;2023-07-31T08:31:13;100572.91;;;16.82;100.00
29909;BME280;36247;51.952;6.146;2023-07-31T08:33:43;100568.38;;;16.90;100.00
29909;BME280;36247;51.952;6.146;2023-07-31T08:36:13;100558.44;;;16.97;100.00
29909;BME280;36247;51.952;6.146;2023-07-31T08:38:42;100571.59;;;17.09;100.00
29909;BME280;36247;51.952;6.146;2023-07-31T08:41:09;100574.34;;;17.04;100.00
29909;BME280;36247;51.952;6.146;2023-07-31T08:43:35;100561.03;;;17.01;100.00
29909;BME280;36247;51.952;6.146;2023-07-31T08:46:02;100570.16;;;16.89;100.00
29909;BME280;36247;51.952;6.146;2023-07-31T08:48:28;100555.00;;;16.90;100.00
29909;BME280;36247;51.952;6.146;2023-07-31T08:50:54;100556.69;;;16.94;100.00
29909;BME280;36247;51.952;6.146;2023-07-31T08:53:19;100565.59;;;16.96;100.00
29909;BME280;36247;51.952;6.146;2023-07-31T08:55:46;100560.84;;;17.10;100.00
29909;BME280;36247;51.952;6.146;2023-07-31T08:58:18;100557.47;;;17.01;100.00
29909;BME280;36247;51.952;6.146;2023-07-31T09:00:46;100559.84;;;17.18;100.00
29909;BME280;36247;51.952;6.146;2023-07-31T09:03:17;100560.69;;;17.21;100.00
29909;BME280;36247;51.952;6.146;2023-07-31T09:05:45;100560.81;;;17.14;100.00
29909;BME280;36247;51.952;6.146;2023-07-31T09:08:14;100557.44;;;17.04;100.00
29909;BME280;36247;51.952;6.146;2023-07-31T09:10:44;100560.63;;;17.24;100.00
29909;BME280;36247;51.952;6.146;2023-07-31T09:13:14;100553.63;;;17.17;100.00
29909;BME280;36247;51.952;6.146;2023-07-31T09:15:44;100567.25;;;17.03;100.00
29909;BME280;36247;51.952;6.146;2023-07-31T09:18:13;100550.28;;;17.04;100.00
29909;BME280;36247;51.952;6.146;2023-07-31T09:20:44;100549.31;;;17.08;100.00
29909;BME280;36247;51.952;6.146;2023-07-31T09:23:13;100555.53;;;17.09;100.00
29909;BME280;36247;51.952;6.146;2023-07-31T09:25:45;100556.47;;;17.08;100.00
29909;BME280;36247;51.952;6.146;2023-07-31T09:28:13;100550.50;;;16.90;100.00
29909;BME280;36247;51.952;6.146;2023-07-31T09:30:50;100545.13;;;16.92;100.00
29909;BME280;36247;51.952;6.146;2023-07-31T09:33:17;100546.03;;;16.91;100.00
29909;BME280;36247;51.952;6.146;2023-07-31T09:35:44;100538.06;;;16.86;100.00
29909;BME280;36247;51.952;6.146;2023-07-31T09:38:14;100545.16;;;16.90;100.00
29909;BME280;36247;51.952;6.146;2023-07-31T09:40:47;100546.84;;;16.96;100.00
29909;BME280;36247;51.952;6.146;2023-07-31T09:43:17;100546.84;;;16.96;100.00
29909;BME280;36247;51.952;6.146;2023-07-31T09:45:44;100544.09;;;17.01;100.00
29909;BME280;36247;51.952;6.146;2023-07-31T09:48:16;100545.09;;;16.94;100.00
29909;BME280;36247;51.952;6.146;2023-07-31T09:50:45;100540.47;;;17.05;100.00
29909;BME280;36247;51.952;6.146;2023-07-31T09:53:14;100536.00;;;17.04;100.00
29909;BME280;36247;51.952;6.146;2023-07-31T09:55:43;100529.00;;;16.97;100.00
29909;BME280;36247;51.952;6.146;2023-07-31T09:58:13;100533.13;;;17.15;100.00
29909;BME280;36247;51.952;6.146;2023-07-31T10:00:39;100524.22;;;17.16;100.00
29909;BME280;36247;51.952;6.146;2023-07-31T10:03:10;100524.38;;;17.06;100.00
29909;BME280;36247;51.952;6.146;2023-07-31T10:05:49;100527.78;;;17.15;100.00
29909;BME280;36247;51.952;6.146;2023-07-31T10:08:18;100525.72;;;17.31;100.00
29909;BME280;36247;51.952;6.146;2023-07-31T10:10:45;100525.75;;;17.29;100.00
29909;BME280;36247;51.952;6.146;2023-07-31T10:13:13;100523.03;;;17.31;100.00
29909;BME280;36247;51.952;6.146;2023-07-31T10:15:43;100529.31;;;17.28;100.00
29909;BME280;36247;51.952;6.146;2023-07-31T10:18:18;100524.69;;;17.38;100.00
29909;BME280;36247;51.952;6.146;2023-07-31T10:20:45;100542.47;;;17.40;100.00
29909;BME280;36247;51.952;6.146;2023-07-31T10:23:18;100536.09;;;17.48;100.00
29909;BME280;36247;51.952;6.146;2023-07-31T10:25:44;100523.44;;;17.56;100.00
29909;BME280;36247;51.952;6.146;2023-07-31T10:28:15;100516.22;;;17.59;100.00
29909;BME280;36247;51.952;6.146;2023-07-31T10:30:44;100530.38;;;17.66;100.00
29909;BME280;36247;51.952;6.146;2023-07-31T10:33:14;100516.13;;;17.64;100.00
29909;BME280;36247;51.952;6.146;2023-07-31T10:35:43;100514.09;;;17.75;100.00
29909;BME280;36247;51.952;6.146;2023-07-31T10:38:13;100514.88;;;17.80;100.00
29909;BME280;36247;51.952;6.146;2023-07-31T10:40:45;100515.72;;;17.84;100.00
29909;BME280;36247;51.952;6.146;2023-07-31T10:43:26;100518.41;;;17.84;100.00
29909;BME280;36247;51.952;6.146;2023-07-31T10:45:53;100512.94;;;17.89;100.00
29909;BME280;36247;51.952;6.146;2023-07-31T10:48:18;100497.47;;;18.02;100.00
29909;BME280;36247;51.952;6.146;2023-07-31T10:51:07;100493.63;;;18.13;100.00
29909;BME280;36247;51.952;6.146;2023-07-31T10:53:34;100502.50;;;18.17;100.00
29909;BME280;36247;51.952;6.146;2023-07-31T10:56:03;100505.50;;;18.42;100.00
29909;BME280;36247;51.952;6.146;2023-07-31T10:58:33;100502.97;;;18.35;100.00
29909;BME280;36247;51.952;6.146;2023-07-31T11:01:08;100495.41;;;18.52;100.00
29909;BME280;36247;51.952;6.146;2023-07-31T11:03:48;100494.53;;;18.52;100.00
29909;BME280;36247;51.952;6.146;2023-07-31T11:06:18;100490.88;;;18.56;100.00
29909;BME280;36247;51.952;6.146;2023-07-31T11:08:50;100494.22;;;18.64;100.00
29909;BME280;36247;51.952;6.146;2023-07-31T11:11:18;100496.09;;;18.62;100.00
29909;BME280;36247;51.952;6.146;2023-07-31T11:13:48;100485.19;;;18.68;100.00
29909;BME280;36247;51.952;6.146;2023-07-31T11:16:22;100488.03;;;18.62;100.00
29909;BME280;36247;51.952;6.146;2023-07-31T11:18:48;100478.13;;;18.64;100.00
29909;BME280;36247;51.952;6.146;2023-07-31T11:21:20;100480.91;;;18.61;100.00
29909;BME280;36247;51.952;6.146;2023-07-31T11:23:51;100494.78;;;18.42;100.00
29909;BME280;36247;51.952;6.146;2023-07-31T11:26:17;100484.81;;;18.47;100.00
29909;BME280;36247;51.952;6.146;2023-07-31T11:28:46;100492.97;;;18.43;100.00
29909;BME280;36247;51.952;6.146;2023-07-31T11:31:13;100496.44;;;18.46;100.00
29909;BME280;36247;51.952;6.146;2023-07-31T11:33:43;100492.94;;;18.44;100.00
29909;BME280;36247;51.952;6.146;2023-07-31T11:36:17;100500.25;;;18.36;100.00
29909;BME280;36247;51.952;6.146;2023-07-31T11:38:43;100492.41;;;18.28;100.00
29909;BME280;36247;51.952;6.146;2023-07-31T11:41:09;100493.94;;;18.01;100.00
29909;BME280;36247;51.952;6.146;2023-07-31T11:43:35;100488.34;;;18.10;100.00
29909;BME280;36247;51.952;6.146;2023-07-31T11:46:02;100493.72;;;18.10;100.00
29909;BME280;36247;51.952;6.146;2023-07-31T11:48:34;100497.19;;;18.15;100.00
29909;BME280;36247;51.952;6.146;2023-07-31T11:51:02;100489.97;;;18.18;100.00
29909;BME280;36247;51.952;6.146;2023-07-31T11:53:35;100487.78;;;18.35;100.00
29909;BME280;36247;51.952;6.146;2023-07-31T11:56:03;100485.72;;;18.46;100.00
29909;BME280;36247;51.952;6.146;2023-07-31T11:58:34;100481.81;;;18.60;100.00
29909;BME280;36247;51.952;6.146;2023-07-31T12:01:00;100478.38;;;18.55;100.00
29909;BME280;36247;51.952;6.146;2023-07-31T12:03:27;100478.41;;;18.53;100.00
29909;BME280;36247;51.952;6.146;2023-07-31T12:05:53;100484.84;;;18.46;100.00
29909;BME280;36247;51.952;6.146;2023-07-31T12:08:21;100477.00;;;18.38;100.00
29909;BME280;36247;51.952;6.146;2023-07-31T12:10:50;100484.19;;;18.72;100.00
29909;BME280;36247;51.952;6.146;2023-07-31T12:13:24;100485.75;;;18.81;100.00
29909;BME280;36247;51.952;6.146;2023-07-31T12:15:55;100485.06;;;18.73;100.00
29909;BME280;36247;51.952;6.146;2023-07-31T12:18:22;100481.09;;;18.89;100.00
29909;BME280;36247;51.952;6.146;2023-07-31T12:20:49;100470.50;;;18.83;100.00
29909;BME280;36247;51.952;6.146;2023-07-31T12:23:20;100478.63;;;18.80;100.00
29909;BME280;36247;51.952;6.146;2023-07-31T12:28:40;100476.81;;;18.80;100.00
29909;BME280;36247;51.952;6.146;2023-07-31T12:31:14;100486.97;;;18.69;100.00
29909;BME280;36247;51.952;6.146;2023-07-31T12:33:43;100476.22;;;18.69;100.00
29909;BME280;36247;51.952;6.146;2023-07-31T12:36:15;100476.44;;;18.96;100.00
29909;BME280;36247;51.952;6.146;2023-07-31T12:38:52;100489.41;;;18.78;100.00
29909;BME280;36247;51.952;6.146;2023-07-31T12:41:17;100478.66;;;18.78;100.00
29909;BME280;36247;51.952;6.146;2023-07-31T12:43:46;100472.81;;;18.62;100.00
29909;BME280;36247;51.952;6.146;2023-07-31T12:46:13;100472.53;;;18.73;100.00
29909;BME280;36247;51.952;6.146;2023-07-31T12:48:44;100460.59;;;18.50;100.00
29909;BME280;36247;51.952;6.146;2023-07-31T12:51:20;100466.16;;;18.43;100.00
29909;BME280;36247;51.952;6.146;2023-07-31T12:53:46;100462.00;;;18.29;100.00
29909;BME280;36247;51.952;6.146;2023-07-31T12:56:13;100453.78;;;18.36;100.00